sensor_id;sensor_type;location;lat;lon;timestamp;pressure;altitude;pressure_sealevel;temperature;humidity
40612;BME280;26317;44.894;20.286;2022-07-30T00:01:15;100343.56;;;27.15;56.00
40612;BME280;26317;44.894;20.286;2022-07-30T00:03:44;100334.50;;;27.08;56.12
40612;BME280;26317;44.894;20.286;2022-07-30T00:06:13;100307.66;;;26.87;56.02
40612;BME280;26317;44.894;20.286;2022-07-30T00:08:42;100330.94;;;27.07;56.19
40612;BME280;26317;44.894;20.286;2022-07-30T00:11:13;100325.81;;;27.02;55.85
40612;BME280;26317;44.894;20.286;2022-07-30T00:13:42;100332.13;;;27.06;56.21
40612;BME280;26317;44.894;20.286;2022-07-30T00:16:11;100332.53;;;27.05;56.17
40612;BME280;26317;44.894;20.286;2022-07-30T00:18:41;100304.53;;;26.92;56.18
40612;BME280;26317;44.894;20.286;2022-07-30T00:21:10;100323.47;;;27.04;56.58
40612;BME280;26317;44.894;20.286;2022-07-30T00:23:39;100328.59;;;27.09;56.22
40612;BME280;26317;44.894;20.286;2022-07-30T00:26:08;100302.16;;;26.94;56.42
40612;BME280;26317;44.894;20.286;2022-07-30T00:28:41;100310.09;;;27.06;57.06
40612;BME280;26317;44.894;20.286;2022-07-30T00:31:10;100324.25;;;27.05;56.69
40612;BME280;26317;44.894;20.286;2022-07-30T00:33:40;100316.38;;;27.03;57.26
40612;BME280;26317;44.894;20.286;2022-07-30T00:36:09;100316.75;;;26.98;56.67
40612;BME280;26317;44.894;20.286;2022-07-30T00:38:37;100297.84;;;26.93;57.19
40612;BME280;26317;44.894;20.286;2022-07-30T00:41:06;100299.06;;;26.99;57.24
40612;BME280;26317;44.894;20.286;2022-07-30T00:43:36;100290.31;;;26.83;57.58
40612;BME280;26317;44.894;20.286;2022-07-30T00:46:08;100308.47;;;26.91;57.81
40612;BME280;26317;44.894;20.286;2022-07-30T00:48:39;100300.16;;;26.84;57.55
40612;BME280;26317;44.894;20.286;2022-07-30T00:51:08;100308.81;;;26.86;57.90
40612;BME280;26317;44.894;20.286;2022-07-30T00:53:37;100292.25;;;26.79;57.60
40612;BME280;26317;44.894;20.286;2022-07-30T00:56:06;100300.88;;;26.77;57.50
40612;BME280;26317;44.894;20.286;2022-07-30T00:58:36;100305.56;;;26.70;57.71
40612;BME280;26317;44.894;20.286;2022-07-30T01:01:09;100299.25;;;26.66;57.78
40612;BME280;26317;44.894;20.286;2022-07-30T01:03:38;100279.88;;;26.48;58.24
40612;BME280;26317;44.894;20.286;2022-07-30T01:06:10;100291.66;;;26.45;58.52
40612;BME280;26317;44.894;20.286;2022-07-30T01:08:39;100308.16;;;26.45;58.38
40612;BME280;26317;44.894;20.286;2022-07-30T01:11:08;100295.13;;;26.35;59.00
40612;BME280;26317;44.894;20.286;2022-07-30T01:13:41;100293.16;;;26.35;59.26
40612;BME280;26317;44.894;20.286;2022-07-30T01:16:13;100295.50;;;26.30;59.20
40612;BME280;26317;44.894;20.286;2022-07-30T01:18:44;100291.94;;;26.26;59.36
40612;BME280;26317;44.894;20.286;2022-07-30T01:21:31;100292.69;;;26.26;59.58
40612;BME280;26317;44.894;20.286;2022-07-30T01:24:11;100284.34;;;26.16;59.52
40612;BME280;26317;44.894;20.286;2022-07-30T01:26:50;100290.69;;;26.20;59.80
40612;BME280;26317;44.894;20.286;2022-07-30T01:29:19;100282.41;;;26.16;59.45
40612;BME280;26317;44.894;20.286;2022-07-30T01:31:49;100284.38;;;26.19;59.63
40612;BME280;26317;44.894;20.286;2022-07-30T01:34:21;100290.66;;;26.16;60.05
40612;BME280;26317;44.894;20.286;2022-07-30T01:36:52;100286.66;;;26.10;60.46
40612;BME280;26317;44.894;20.286;2022-07-30T01:39:25;100289.03;;;26.12;60.46
40612;BME280;26317;44.894;20.286;2022-07-30T01:41:58;100255.88;;;25.90;60.21
40612;BME280;26317;44.894;20.286;2022-07-30T01:44:30;100271.69;;;26.00;60.16
40612;BME280;26317;44.894;20.286;2022-07-30T01:47:00;100281.56;;;26.08;60.43
40612;BME280;26317;44.894;20.286;2022-07-30T01:49:31;100287.84;;;26.09;60.29
40612;BME280;26317;44.894;20.286;2022-07-30T01:52:02;100278.84;;;26.12;60.52
40612;BME280;26317;44.894;20.286;2022-07-30T01:54:33;100244.53;;;25.92;60.28
40612;BME280;26317;44.894;20.286;2022-07-30T01:57:07;100275.31;;;26.15;60.47
40612;BME280;26317;44.894;20.286;2022-07-30T01:59:38;100276.09;;;26.16;60.41
40612;BME280;26317;44.894;20.286;2022-07-30T02:08:52;100224.09;;;25.93;60.08
40612;BME280;26317;44.894;20.286;2022-07-30T02:11:24;100257.72;;;26.23;60.03
40612;BME280;26317;44.894;20.286;2022-07-30T02:14:18;100253.00;;;26.20;59.86
40612;BME280;26317;44.894;20.286;2022-07-30T02:16:52;100249.78;;;26.18;60.26
40612;BME280;26317;44.894;20.286;2022-07-30T02:19:25;100247.38;;;26.09;61.03
40612;BME280;26317;44.894;20.286;2022-07-30T02:22:00;100262.34;;;26.12;60.85
40612;BME280;26317;44.894;20.286;2022-07-30T02:24:32;100222.13;;;25.90;60.93
40612;BME280;26317;44.894;20.286;2022-07-30T02:27:04;100234.72;;;25.94;60.62
40612;BME280;26317;44.894;20.286;2022-07-30T02:29:37;100250.88;;;26.03;60.80
40612;BME280;26317;44.894;20.286;2022-07-30T02:32:12;100244.94;;;25.97;61.39
40612;BME280;26317;44.894;20.286;2022-07-30T02:34:45;100244.19;;;26.00;61.48
40612;BME280;26317;44.894;20.286;2022-07-30T02:37:19;100243.75;;;25.95;61.85
40612;BME280;26317;44.894;20.286;2022-07-30T02:39:50;100244.91;;;25.94;62.85
40612;BME280;26317;44.894;20.286;2022-07-30T02:42:21;100240.19;;;25.91;62.93
40612;BME280;26317;44.894;20.286;2022-07-30T02:44:57;100238.94;;;25.85;63.65
40612;BME280;26317;44.894;20.286;2022-07-30T02:47:28;100244.06;;;25.83;63.83
40612;BME280;26317;44.894;20.286;2022-07-30T02:50:03;100236.97;;;25.82;63.83
40612;BME280;26317;44.894;20.286;2022-07-30T02:52:34;100225.94;;;25.75;64.42
40612;BME280;26317;44.894;20.286;2022-07-30T02:55:03;100248.75;;;25.82;64.55
40612;BME280;26317;44.894;20.286;2022-07-30T02:57:33;100244.81;;;25.80;64.80
40612;BME280;26317;44.894;20.286;2022-07-30T03:00:07;100242.06;;;25.80;64.73
40612;BME280;26317;44.894;20.286;2022-07-30T03:02:38;100236.16;;;25.78;64.56
40612;BME280;26317;44.894;20.286;2022-07-30T03:05:08;100236.56;;;25.80;64.85
40612;BME280;26317;44.894;20.286;2022-07-30T03:07:39;100242.47;;;25.82;64.69
40612;BME280;26317;44.894;20.286;2022-07-30T03:10:10;100240.09;;;25.80;64.92
40612;BME280;26317;44.894;20.286;2022-07-30T03:12:42;100241.66;;;25.78;64.48
40612;BME280;26317;44.894;20.286;2022-07-30T03:15:15;100219.63;;;25.71;64.92
40612;BME280;26317;44.894;20.286;2022-07-30T03:17:49;100226.72;;;25.75;64.99
40612;BME280;26317;44.894;20.286;2022-07-30T03:20:24;100235.34;;;25.77;64.62
40612;BME280;26317;44.894;20.286;2022-07-30T03:22:54;100222.38;;;25.74;64.76
40612;BME280;26317;44.894;20.286;2022-07-30T03:25:28;100231.03;;;25.76;64.56
40612;BME280;26317;44.894;20.286;2022-07-30T03:27:59;100229.03;;;25.73;64.99
40612;BME280;26317;44.894;20.286;2022-07-30T03:30:32;100235.34;;;25.74;65.53
40612;BME280;26317;44.894;20.286;2022-07-30T03:33:02;100239.66;;;25.71;65.68
40612;BME280;26317;44.894;20.286;2022-07-30T03:35:33;100225.84;;;25.68;65.36
40612;BME280;26317;44.894;20.286;2022-07-30T03:38:04;100205.34;;;25.54;65.45
40612;BME280;26317;44.894;20.286;2022-07-30T03:40:33;100204.50;;;25.50;65.13
40612;BME280;26317;44.894;20.286;2022-07-30T03:43:03;100227.44;;;25.69;65.39
40612;BME280;26317;44.894;20.286;2022-07-30T03:45:35;100212.06;;;25.60;65.04
40612;BME280;26317;44.894;20.286;2022-07-30T03:48:08;100224.28;;;25.67;65.32
40612;BME280;26317;44.894;20.286;2022-07-30T03:50:42;100228.22;;;25.69;65.39
40612;BME280;26317;44.894;20.286;2022-07-30T03:53:13;100237.66;;;25.72;65.27
40612;BME280;26317;44.894;20.286;2022-07-30T03:56:03;100235.31;;;25.70;65.77
40612;BME280;26317;44.894;20.286;2022-07-30T03:58:52;100244.75;;;25.73;65.58
40612;BME280;26317;44.894;20.286;2022-07-30T04:01:26;100234.50;;;25.70;65.52
40612;BME280;26317;44.894;20.286;2022-07-30T04:04:04;100229.03;;;25.73;65.38
40612;BME280;26317;44.894;20.286;2022-07-30T04:06:34;100231.44;;;25.78;65.75
40612;BME280;26317;44.894;20.286;2022-07-30T04:09:05;100218.84;;;25.74;65.00
40612;BME280;26317;44.894;20.286;2022-07-30T04:11:35;100224.00;;;25.79;65.20
40612;BME280;26317;44.894;20.286;2022-07-30T04:14:06;100225.22;;;25.85;65.37
40612;BME280;26317;44.894;20.286;2022-07-30T04:16:46;100217.38;;;25.87;65.39
40612;BME280;26317;44.894;20.286;2022-07-30T04:19:22;100212.28;;;25.89;65.13
40612;BME280;26317;44.894;20.286;2022-07-30T04:21:52;100216.22;;;25.88;65.08
40612;BME280;26317;44.894;20.286;2022-07-30T04:24:22;100206.41;;;25.87;65.29
40612;BME280;26317;44.894;20.286;2022-07-30T04:26:53;100210.78;;;25.95;65.45
40612;BME280;26317;44.894;20.286;2022-07-30T04:29:22;100201.34;;;25.96;65.49
40612;BME280;26317;44.894;20.286;2022-07-30T04:31:55;100193.91;;;25.96;65.27
40612;BME280;26317;44.894;20.286;2022-07-30T04:34:30;100184.41;;;25.87;65.41
40612;BME280;26317;44.894;20.286;2022-07-30T04:37:02;100210.81;;;26.02;65.63
40612;BME280;26317;44.894;20.286;2022-07-30T04:39:32;100162.72;;;25.75;65.06
40612;BME280;26317;44.894;20.286;2022-07-30T04:42:00;100217.13;;;26.06;65.61
40612;BME280;26317;44.894;20.286;2022-07-30T04:44:34;100230.16;;;26.16;65.63
40612;BME280;26317;44.894;20.286;2022-07-30T04:47:28;100223.50;;;26.17;65.05
40612;BME280;26317;44.894;20.286;2022-07-30T04:50:15;100222.31;;;26.18;65.31
40612;BME280;26317;44.894;20.286;2022-07-30T04:52:49;100206.59;;;26.19;65.60
40612;BME280;26317;44.894;20.286;2022-07-30T04:55:25;100190.84;;;26.08;65.56
40612;BME280;26317;44.894;20.286;2022-07-30T04:57:55;100188.50;;;26.14;65.43
40612;BME280;26317;44.894;20.286;2022-07-30T05:00:28;100211.06;;;26.34;65.00
40612;BME280;26317;44.894;20.286;2022-07-30T05:03:01;100198.84;;;26.35;64.97
40612;BME280;26317;44.894;20.286;2022-07-30T05:05:32;100206.75;;;26.43;65.24
40612;BME280;26317;44.894;20.286;2022-07-30T05:08:03;100205.59;;;26.48;65.50
40612;BME280;26317;44.894;20.286;2022-07-30T05:10:32;100213.47;;;26.49;64.94
40612;BME280;26317;44.894;20.286;2022-07-30T05:13:01;100211.91;;;26.52;64.97
40612;BME280;26317;44.894;20.286;2022-07-30T05:15:31;100215.88;;;26.54;64.78
40612;BME280;26317;44.894;20.286;2022-07-30T05:18:03;100222.56;;;26.61;64.27
40612;BME280;26317;44.894;20.286;2022-07-30T05:20:36;100211.19;;;26.59;64.22
40612;BME280;26317;44.894;20.286;2022-07-30T05:23:31;100228.09;;;26.68;63.51
40612;BME280;26317;44.894;20.286;2022-07-30T05:26:13;100239.53;;;26.70;63.02
40612;BME280;26317;44.894;20.286;2022-07-30T05:28:44;100232.03;;;26.67;63.22
40612;BME280;26317;44.894;20.286;2022-07-30T05:31:14;100243.88;;;26.74;62.92
40612;BME280;26317;44.894;20.286;2022-07-30T05:33:54;100236.41;;;26.75;63.02
40612;BME280;26317;44.894;20.286;2022-07-30T05:36:31;100188.31;;;26.47;63.04
40612;BME280;26317;44.894;20.286;2022-07-30T05:39:00;100219.47;;;26.73;62.67
40612;BME280;26317;44.894;20.286;2022-07-30T05:41:37;100247.13;;;26.94;63.00
40612;BME280;26317;44.894;20.286;2022-07-30T05:44:17;100233.75;;;26.96;63.01
40612;BME280;26317;44.894;20.286;2022-07-30T05:46:46;100211.31;;;26.90;62.84
40612;BME280;26317;44.894;20.286;2022-07-30T05:49:19;100244.81;;;27.10;63.03
40612;BME280;26317;44.894;20.286;2022-07-30T05:51:48;100245.22;;;27.19;62.63
40612;BME280;26317;44.894;20.286;2022-07-30T05:54:17;100233.03;;;27.20;61.95
40612;BME280;26317;44.894;20.286;2022-07-30T05:57:15;100244.47;;;27.26;61.19
40612;BME280;26317;44.894;20.286;2022-07-30T05:59:45;100234.63;;;27.25;61.78
40612;BME280;26317;44.894;20.286;2022-07-30T06:02:24;100233.06;;;27.34;61.81
40612;BME280;26317;44.894;20.286;2022-07-30T06:05:11;100217.31;;;27.31;61.13
40612;BME280;26317;44.894;20.286;2022-07-30T06:07:42;100215.75;;;27.37;61.29
40612;BME280;26317;44.894;20.286;2022-07-30T06:10:12;100226.03;;;27.51;61.77
40612;BME280;26317;44.894;20.286;2022-07-30T06:12:41;100208.28;;;27.45;61.69
40612;BME280;26317;44.894;20.286;2022-07-30T06:15:10;100227.22;;;27.68;61.13
40612;BME280;26317;44.894;20.286;2022-07-30T06:17:42;100232.34;;;27.80;60.87
40612;BME280;26317;44.894;20.286;2022-07-30T06:20:19;100231.94;;;27.85;60.55
40612;BME280;26317;44.894;20.286;2022-07-30T06:23:07;100240.19;;;27.85;60.14
40612;BME280;26317;44.894;20.286;2022-07-30T06:26:02;100227.63;;;27.84;59.59
40612;BME280;26317;44.894;20.286;2022-07-30T06:28:33;100240.19;;;27.99;59.30
40612;BME280;26317;44.894;20.286;2022-07-30T06:31:02;100241.00;;;28.10;58.53
40612;BME280;26317;44.894;20.286;2022-07-30T06:33:31;100243.34;;;28.22;58.59
40612;BME280;26317;44.894;20.286;2022-07-30T06:36:03;100244.13;;;28.33;58.08
40612;BME280;26317;44.894;20.286;2022-07-30T06:38:42;100242.91;;;28.42;57.42
40612;BME280;26317;44.894;20.286;2022-07-30T06:41:14;100245.25;;;28.54;57.28
40612;BME280;26317;44.894;20.286;2022-07-30T06:43:50;100227.53;;;28.51;57.42
40612;BME280;26317;44.894;20.286;2022-07-30T06:46:44;100238.50;;;28.76;57.04
40612;BME280;26317;44.894;20.286;2022-07-30T06:49:13;100230.19;;;28.69;57.32
40612;BME280;26317;44.894;20.286;2022-07-30T06:51:45;100227.47;;;28.65;56.53
40612;BME280;26317;44.894;20.286;2022-07-30T06:54:18;100232.53;;;28.81;56.32
40612;BME280;26317;44.894;20.286;2022-07-30T06:57:00;100232.09;;;28.93;56.03
40612;BME280;26317;44.894;20.286;2022-07-30T06:59:32;100180.13;;;28.74;56.32
40612;BME280;26317;44.894;20.286;2022-07-30T07:02:16;100236.28;;;29.22;55.57
40612;BME280;26317;44.894;20.286;2022-07-30T07:05:03;100233.84;;;29.35;54.93
40612;BME280;26317;44.894;20.286;2022-07-30T07:07:35;100240.50;;;29.45;54.54
40612;BME280;26317;44.894;20.286;2022-07-30T07:10:07;100224.31;;;29.47;53.60
40612;BME280;26317;44.894;20.286;2022-07-30T07:12:56;100235.50;;;29.77;52.42
40612;BME280;26317;44.894;20.286;2022-07-30T07:15:26;100217.69;;;29.82;52.62
40612;BME280;26317;44.894;20.286;2022-07-30T07:17:58;100216.41;;;29.97;49.83
40612;BME280;26317;44.894;20.286;2022-07-30T07:20:34;100213.94;;;30.06;50.21
40612;BME280;26317;44.894;20.286;2022-07-30T07:23:08;100217.34;;;30.21;50.99
40612;BME280;26317;44.894;20.286;2022-07-30T07:25:37;100216.22;;;30.18;49.98
40612;BME280;26317;44.894;20.286;2022-07-30T07:28:07;100218.56;;;30.20;48.26
40612;BME280;26317;44.894;20.286;2022-07-30T07:30:36;100212.34;;;30.08;48.66
40612;BME280;26317;44.894;20.286;2022-07-30T07:33:07;100225.78;;;30.06;48.43
40612;BME280;26317;44.894;20.286;2022-07-30T07:35:37;100210.94;;;29.93;48.78
40612;BME280;26317;44.894;20.286;2022-07-30T07:38:09;100225.13;;;29.95;48.95
40612;BME280;26317;44.894;20.286;2022-07-30T07:40:38;100218.78;;;29.95;48.93
40612;BME280;26317;44.894;20.286;2022-07-30T07:43:07;100218.41;;;29.96;49.33
40612;BME280;26317;44.894;20.286;2022-07-30T07:45:38;100205.00;;;29.91;49.29
40612;BME280;26317;44.894;20.286;2022-07-30T07:48:08;100206.59;;;29.85;50.30
40612;BME280;26317;44.894;20.286;2022-07-30T07:50:57;100219.06;;;30.07;52.07
40612;BME280;26317;44.894;20.286;2022-07-30T07:53:30;100215.47;;;30.14;53.35
40612;BME280;26317;44.894;20.286;2022-07-30T07:56:04;100210.94;;;30.27;52.46
40612;BME280;26317;44.894;20.286;2022-07-30T07:58:36;100193.59;;;30.27;51.94
40612;BME280;26317;44.894;20.286;2022-07-30T08:01:05;100205.53;;;30.54;52.12
40612;BME280;26317;44.894;20.286;2022-07-30T08:04:00;100184.19;;;30.54;51.49
40612;BME280;26317;44.894;20.286;2022-07-30T08:06:49;100133.84;;;30.29;50.77
40612;BME280;26317;44.894;20.286;2022-07-30T08:09:46;100201.31;;;30.76;50.55
40612;BME280;26317;44.894;20.286;2022-07-30T08:12:48;100186.16;;;30.84;49.96
40612;BME280;26317;44.894;20.286;2022-07-30T08:15:48;100202.81;;;31.11;49.46
40612;BME280;26317;44.894;20.286;2022-07-30T08:18:36;100187.44;;;31.07;48.80
40612;BME280;26317;44.894;20.286;2022-07-30T08:21:20;100200.41;;;31.40;49.18
40612;BME280;26317;44.894;20.286;2022-07-30T08:23:50;100203.09;;;31.47;48.43
40612;BME280;26317;44.894;20.286;2022-07-30T08:26:22;100180.91;;;31.47;48.82
40612;BME280;26317;44.894;20.286;2022-07-30T08:28:53;100181.19;;;31.56;48.33
40612;BME280;26317;44.894;20.286;2022-07-30T08:31:37;100201.31;;;31.83;48.86
40612;BME280;26317;44.894;20.286;2022-07-30T08:34:06;100177.19;;;31.80;47.79
40612;BME280;26317;44.894;20.286;2022-07-30T08:36:35;100192.59;;;32.05;47.81
40612;BME280;26317;44.894;20.286;2022-07-30T08:39:07;100207.16;;;32.12;46.09
40612;BME280;26317;44.894;20.286;2022-07-30T08:41:40;100197.47;;;32.20;45.81
40612;BME280;26317;44.894;20.286;2022-07-30T08:44:11;100209.22;;;32.28;45.79
40612;BME280;26317;44.894;20.286;2022-07-30T08:46:41;100195.25;;;32.12;47.16
40612;BME280;26317;44.894;20.286;2022-07-30T08:49:31;100213.78;;;32.18;46.01
40612;BME280;26317;44.894;20.286;2022-07-30T08:52:01;100201.53;;;31.92;46.07
40612;BME280;26317;44.894;20.286;2022-07-30T08:54:44;100213.06;;;31.91;47.88
40612;BME280;26317;44.894;20.286;2022-07-30T08:57:18;100210.03;;;31.82;48.42
40612;BME280;26317;44.894;20.286;2022-07-30T08:59:47;100203.84;;;31.74;47.88
40612;BME280;26317;44.894;20.286;2022-07-30T09:02:16;100229.03;;;31.83;48.32
40612;BME280;26317;44.894;20.286;2022-07-30T09:04:58;100241.94;;;31.70;47.43
40612;BME280;26317;44.894;20.286;2022-07-30T09:07:28;100237.78;;;31.59;48.57
40612;BME280;26317;44.894;20.286;2022-07-30T09:09:58;100239.66;;;31.65;48.55
40612;BME280;26317;44.894;20.286;2022-07-30T09:12:40;100246.75;;;31.66;48.29
40612;BME280;26317;44.894;20.286;2022-07-30T09:15:11;100242.97;;;31.53;47.01
40612;BME280;26317;44.894;20.286;2022-07-30T09:17:45;100222.34;;;31.31;48.18
40612;BME280;26317;44.894;20.286;2022-07-30T09:20:15;100237.66;;;31.39;47.54
40612;BME280;26317;44.894;20.286;2022-07-30T09:22:45;100257.97;;;31.59;47.82
40612;BME280;26317;44.894;20.286;2022-07-30T09:25:38;100252.97;;;31.74;47.03
40612;BME280;26317;44.894;20.286;2022-07-30T09:28:32;100241.22;;;31.66;47.33
40612;BME280;26317;44.894;20.286;2022-07-30T09:31:30;100248.75;;;31.39;47.62
40612;BME280;26317;44.894;20.286;2022-07-30T09:34:32;100247.84;;;31.19;48.25
40612;BME280;26317;44.894;20.286;2022-07-30T09:37:17;100255.63;;;31.00;48.83
40612;BME280;26317;44.894;20.286;2022-07-30T09:40:17;100244.69;;;30.86;48.09
40612;BME280;26317;44.894;20.286;2022-07-30T09:43:06;100241.94;;;30.86;48.40
40612;BME280;26317;44.894;20.286;2022-07-30T09:45:50;100243.03;;;30.92;48.36
40612;BME280;26317;44.894;20.286;2022-07-30T09:48:22;100256.53;;;31.21;48.83
40612;BME280;26317;44.894;20.286;2022-07-30T09:50:53;100230.34;;;31.25;47.80
40612;BME280;26317;44.894;20.286;2022-07-30T09:53:23;100253.28;;;31.52;46.53
40612;BME280;26317;44.894;20.286;2022-07-30T09:55:52;100255.03;;;31.70;46.86
40612;BME280;26317;44.894;20.286;2022-07-30T09:58:36;100226.81;;;31.75;46.31
40612;BME280;26317;44.894;20.286;2022-07-30T10:01:11;100250.16;;;32.01;46.64
40612;BME280;26317;44.894;20.286;2022-07-30T10:04:01;100216.63;;;31.91;45.51
40612;BME280;26317;44.894;20.286;2022-07-30T10:06:53;100243.16;;;32.16;45.17
40612;BME280;26317;44.894;20.286;2022-07-30T10:09:34;100235.56;;;32.20;45.83
40612;BME280;26317;44.894;20.286;2022-07-30T10:12:06;100225.47;;;32.29;45.03
40612;BME280;26317;44.894;20.286;2022-07-30T10:14:37;100226.09;;;32.37;43.53
40612;BME280;26317;44.894;20.286;2022-07-30T10:17:14;100227.19;;;32.43;45.72
40612;BME280;26317;44.894;20.286;2022-07-30T10:20:04;100229.97;;;32.43;43.35
40612;BME280;26317;44.894;20.286;2022-07-30T10:22:55;100221.84;;;32.52;43.62
40612;BME280;26317;44.894;20.286;2022-07-30T10:25:25;100228.81;;;32.40;44.11
40612;BME280;26317;44.894;20.286;2022-07-30T10:28:13;100211.94;;;32.51;43.72
40612;BME280;26317;44.894;20.286;2022-07-30T10:30:43;100216.03;;;32.66;43.19
40612;BME280;26317;44.894;20.286;2022-07-30T10:33:16;100180.78;;;32.44;42.96
40612;BME280;26317;44.894;20.286;2022-07-30T10:35:46;100211.38;;;32.79;42.78
40612;BME280;26317;44.894;20.286;2022-07-30T10:38:16;100195.00;;;32.85;42.77
40612;BME280;26317;44.894;20.286;2022-07-30T10:40:51;100208.66;;;32.96;42.53
40612;BME280;26317;44.894;20.286;2022-07-30T10:46:41;100191.19;;;32.95;41.50
40612;BME280;26317;44.894;20.286;2022-07-30T10:49:16;100177.47;;;33.04;42.85
40612;BME280;26317;44.894;20.286;2022-07-30T10:51:47;100196.91;;;33.40;42.37
40612;BME280;26317;44.894;20.286;2022-07-30T10:54:38;100203.00;;;33.51;41.12
40612;BME280;26317;44.894;20.286;2022-07-30T10:57:10;100209.44;;;33.64;41.02
40612;BME280;26317;44.894;20.286;2022-07-30T11:00:14;100199.88;;;33.65;41.25
40612;BME280;26317;44.894;20.286;2022-07-30T11:03:15;100204.41;;;33.43;41.61
40612;BME280;26317;44.894;20.286;2022-07-30T11:06:27;100199.09;;;33.33;42.05
40612;BME280;26317;44.894;20.286;2022-07-30T11:08:57;100191.34;;;33.40;42.10
40612;BME280;26317;44.894;20.286;2022-07-30T11:11:42;100193.94;;;33.15;41.28
40612;BME280;26317;44.894;20.286;2022-07-30T11:14:11;100194.84;;;33.08;40.99
40612;BME280;26317;44.894;20.286;2022-07-30T11:16:58;100182.81;;;33.15;40.56
40612;BME280;26317;44.894;20.286;2022-07-30T11:19:28;100192.28;;;32.81;41.44
40612;BME280;26317;44.894;20.286;2022-07-30T11:22:23;100193.31;;;32.71;42.11
40612;BME280;26317;44.894;20.286;2022-07-30T11:24:54;100169.00;;;32.56;42.24
40612;BME280;26317;44.894;20.286;2022-07-30T11:27:39;100208.41;;;32.70;42.52
40612;BME280;26317;44.894;20.286;2022-07-30T11:30:32;100191.03;;;32.66;43.52
40612;BME280;26317;44.894;20.286;2022-07-30T11:33:22;100155.13;;;32.75;43.40
40612;BME280;26317;44.894;20.286;2022-07-30T11:36:07;100194.47;;;33.26;43.50
40612;BME280;26317;44.894;20.286;2022-07-30T11:38:57;100193.59;;;33.29;41.83
40612;BME280;26317;44.894;20.286;2022-07-30T11:41:36;100173.63;;;33.18;42.16
40612;BME280;26317;44.894;20.286;2022-07-30T11:44:27;100190.66;;;33.20;42.95
40612;BME280;26317;44.894;20.286;2022-07-30T11:46:56;100183.59;;;33.15;44.45
40612;BME280;26317;44.894;20.286;2022-07-30T11:49:33;100162.25;;;32.76;44.45
40612;BME280;26317;44.894;20.286;2022-07-30T11:52:09;100168.50;;;32.80;44.43
40612;BME280;26317;44.894;20.286;2022-07-30T11:54:54;100194.59;;;33.03;44.05
40612;BME280;26317;44.894;20.286;2022-07-30T11:57:38;100199.56;;;32.75;43.23
40612;BME280;26317;44.894;20.286;2022-07-30T12:00:08;100180.00;;;32.63;43.77
40612;BME280;26317;44.894;20.286;2022-07-30T12:02:41;100163.03;;;32.37;42.99
40612;BME280;26317;44.894;20.286;2022-07-30T12:05:13;100180.34;;;32.65;43.08
40612;BME280;26317;44.894;20.286;2022-07-30T12:07:43;100195.41;;;32.83;42.44
40612;BME280;26317;44.894;20.286;2022-07-30T12:10:18;100168.47;;;32.61;41.56
40612;BME280;26317;44.894;20.286;2022-07-30T12:12:50;100117.28;;;32.26;41.29
40612;BME280;26317;44.894;20.286;2022-07-30T12:15:32;100142.72;;;32.40;40.58
40612;BME280;26317;44.894;20.286;2022-07-30T12:18:05;100085.81;;;32.13;41.46
40612;BME280;26317;44.894;20.286;2022-07-30T12:20:38;100143.56;;;32.57;40.63
40612;BME280;26317;44.894;20.286;2022-07-30T12:23:10;100113.34;;;32.43;40.06
40612;BME280;26317;44.894;20.286;2022-07-30T12:25:44;100154.41;;;32.71;39.73
40612;BME280;26317;44.894;20.286;2022-07-30T12:28:24;100105.00;;;32.43;40.49
40612;BME280;26317;44.894;20.286;2022-07-30T12:30:57;100100.94;;;32.48;39.42
40612;BME280;26317;44.894;20.286;2022-07-30T12:33:31;100164.66;;;32.74;39.41
40612;BME280;26317;44.894;20.286;2022-07-30T12:36:00;100143.50;;;32.80;39.13
40612;BME280;26317;44.894;20.286;2022-07-30T12:38:29;100204.78;;;33.09;39.11
40612;BME280;26317;44.894;20.286;2022-07-30T12:41:15;100130.03;;;32.95;39.06
40612;BME280;26317;44.894;20.286;2022-07-30T12:43:50;100119.63;;;32.99;38.31
40612;BME280;26317;44.894;20.286;2022-07-30T12:46:21;100084.28;;;32.83;38.30
40612;BME280;26317;44.894;20.286;2022-07-30T12:48:54;100154.84;;;33.38;37.80
40612;BME280;26317;44.894;20.286;2022-07-30T12:51:28;100149.19;;;33.42;37.49
40612;BME280;26317;44.894;20.286;2022-07-30T12:54:00;100199.72;;;33.72;38.15
40612;BME280;26317;44.894;20.286;2022-07-30T12:56:32;100143.31;;;33.40;38.14
40612;BME280;26317;44.894;20.286;2022-07-30T12:59:04;100146.66;;;33.63;36.63
40612;BME280;26317;44.894;20.286;2022-07-30T13:01:51;100206.00;;;34.05;36.94
40612;BME280;26317;44.894;20.286;2022-07-30T13:04:26;100187.34;;;33.73;37.33
40612;BME280;26317;44.894;20.286;2022-07-30T13:07:04;100152.06;;;33.38;37.40
40612;BME280;26317;44.894;20.286;2022-07-30T13:09:34;100202.16;;;33.70;37.33
40612;BME280;26317;44.894;20.286;2022-07-30T13:12:11;100198.31;;;33.81;37.26
40612;BME280;26317;44.894;20.286;2022-07-30T13:14:40;100145.03;;;33.66;36.46
40612;BME280;26317;44.894;20.286;2022-07-30T13:17:09;100082.56;;;33.38;36.94
40612;BME280;26317;44.894;20.286;2022-07-30T13:19:38;100087.00;;;33.36;36.06
40612;BME280;26317;44.894;20.286;2022-07-30T13:22:07;100130.59;;;33.71;35.04
40612;BME280;26317;44.894;20.286;2022-07-30T13:24:38;100138.06;;;33.58;35.27
40612;BME280;26317;44.894;20.286;2022-07-30T13:27:10;100190.47;;;33.92;32.90
40612;BME280;26317;44.894;20.286;2022-07-30T13:29:41;100192.03;;;33.93;31.60
40612;BME280;26317;44.894;20.286;2022-07-30T13:32:10;100153.97;;;33.73;31.92